Latest Weather Observations for Fort Denison

IDN60901

Issued at 8:51 am EST Wednesday 18 September 2019 (issued every 10 minutes, with the page automatically refreshed every 10 minutes)

About weather observations | Map of Sydney area stations | Latest observations for Sydney area | Other Formats
Station Details ID: 066022 Name: FORT DENISON Lat: -33.86 Lon: 151.23 Height: 5.0 m
Data from the previous 72 hours. | See also: Recent months for locations in New South Wales
Date/Time
EST
Temp
°C
App
Temp
°C
Dew
Point
°C
Rel
Hum
%
Delta-T
°C
Wind Press
QNH
hPa
Press
MSL
hPa
Rain since
9am
mm
Dir  Spd
km/h
Gust
km/h
Spd
kts
Gust
kts
18/08:34am - - - - - SSE 32 52 17 28 - - -
18/08:30am - - - - - SSE 32 44 17 24 - - -
18/08:00am - - - - - S 24 39 13 21 - - -
18/07:30am - - - - - SSE 28 46 15 25 - - -
18/07:08am - - - - - SSE 32 50 17 27 - - -
18/07:00am - - - - - SSE 32 44 17 24 - - -
18/06:30am - - - - - SSE 37 56 20 30 - - -
18/06:11am - - - - - SSE 33 52 18 28 - - -
18/06:00am - - - - - SSE 32 44 17 24 - - -
18/05:31am - - - - - SSE 33 52 18 28 - - -
18/05:30am - - - - - SSE 35 52 19 28 - - -
18/05:26am - - - - - SSE 33 52 18 28 - - -
18/05:00am - - - - - SSE 32 46 17 25 - - -
18/04:39am - - - - - SSE 28 54 15 29 - - -
18/04:30am - - - - - SSE 30 43 16 23 - - -
18/04:00am - - - - - SSE 28 46 15 25 - - -
18/03:30am - - - - - S 26 39 14 21 - - -
18/03:03am - - - - - S 28 46 15 25 - - -
18/03:00am - - - - - S 30 46 16 25 - - -
18/02:30am - - - - - SSE 28 43 15 23 - - -
18/02:02am - - - - - SSE 32 50 17 27 - - -
18/02:00am - - - - - SSE 32 44 17 24 - - -
18/01:36am - - - - - S 30 48 16 26 - - -
18/01:30am - - - - - S 32 44 17 24 - - -
18/01:00am - - - - - S 28 43 15 23 - - -
18/12:35am - - - - - SSE 28 46 15 25 - - -
18/12:30am - - - - - SSE 28 41 15 22 - - -
18/12:00am - - - - - S 30 48 16 26 - - -
 
Date/Time
EST
Temp
°C
App
Temp
°C
Dew
Point
°C
Rel
Hum
%
Delta-T
°C
Wind Press
QNH
hPa
Press
MSL
hPa
Rain since
9am
mm
Dir  Spd
km/h
Gust
km/h
Spd
kts
Gust
kts
17/11:51pm - - - - - SSE 30 48 16 26 - - -
17/11:30pm - - - - - SSE 32 46 17 25 - - -
17/11:05pm - - - - - SSE 28 46 15 25 - - -
17/11:00pm - - - - - SSE 30 41 16 22 - - -
17/10:30pm - - - - - SSE 33 44 18 24 - - -
17/10:00pm - - - - - SSE 33 54 18 29 - - -
17/09:31pm - - - - - SSE 39 59 21 32 - - -
17/09:30pm - - - - - SSE 39 56 21 30 - - -
17/09:07pm - - - - - SSE 32 52 17 28 - - -
17/09:00pm - - - - - SSE 33 46 18 25 - - -
17/08:41pm - - - - - SSE 35 54 19 29 - - -
17/08:30pm - - - - - SSE 39 54 21 29 - - -
17/08:00pm - - - - - SE 39 59 21 32 - - -
17/07:52pm - - - - - SE 32 54 17 29 - - -
17/07:30pm - - - - - SE 35 50 19 27 - - -
17/07:00pm - - - - - SE 33 59 18 32 - - -
17/06:30pm - - - - - SE 39 59 21 32 - - -
17/06:00pm - - - - - SE 39 61 21 33 - - -
17/05:30pm - - - - - SE 35 59 19 32 - - -
17/05:00pm - - - - - SE 32 52 17 28 - - -
17/04:34pm - - - - - SE 28 52 15 28 - - -
17/04:30pm - - - - - SE 28 41 15 22 - - -
17/04:00pm - - - - - SE 28 48 15 26 - - -
17/03:44pm - - - - - SE 30 48 16 26 - - -
17/03:30pm - - - - - SE 24 39 13 21 - - -
17/03:00pm - - - - - SE 28 48 15 26 - - -
17/02:59pm - - - - - SE 28 48 15 26 - - -
17/02:30pm - - - - - SSE 32 48 17 26 - - -
17/02:00pm - - - - - SE 24 37 13 20 - - -
17/01:30pm - - - - - SSE 32 50 17 27 - - -
17/01:27pm - - - - - SSE 28 46 15 25 - - -
17/01:00pm - - - - - SSE 28 41 15 22 - - -
17/12:38pm - - - - - SSE 28 48 15 26 - - -
17/12:30pm - - - - - SSE 26 37 14 20 - - -
17/12:00pm - - - - - S 28 41 15 22 - - -
17/11:30am - - - - - SSE 20 35 11 19 - - -
17/11:00am - - - - - S 19 33 10 18 - - -
17/10:30am - - - - - SW 22 33 12 18 - - -
17/10:00am - - - - - SSW 20 32 11 17 - - -
17/09:30am - - - - - SSW 22 37 12 20 - - -
17/09:00am - - - - - SSW 20 32 11 17 - - -
17/08:30am - - - - - SSW 17 30 9 16 - - -
17/08:00am - - - - - W 20 26 11 14 - - -
17/07:30am - - - - - W 24 30 13 16 - - -
17/07:00am - - - - - WNW 20 26 11 14 - - -
17/06:30am - - - - - WSW 19 32 10 17 - - -
17/06:00am - - - - - SSW 19 26 10 14 - - -
17/05:30am - - - - - SSW 13 22 7 12 - - -
17/05:00am - - - - - SW 13 20 7 11 - - -
17/04:30am - - - - - SSW 19 28 10 15 - - -
17/04:00am - - - - - SSW 20 33 11 18 - - -
17/03:30am - - - - - SSW 17 28 9 15 - - -
17/03:00am - - - - - SSW 24 35 13 19 - - -
17/02:30am - - - - - S 20 30 11 16 - - -
17/02:00am - - - - - S 19 30 10 16 - - -
17/01:30am - - - - - S 24 37 13 20 - - -
17/01:17am - - - - - SSE 30 46 16 25 - - -
17/01:00am - - - - - SSE 33 48 18 26 - - -
17/12:30am - - - - - S 24 44 13 24 - - -
17/12:00am - - - - - SSE 24 35 13 19 - - -
 
Date/Time
EST
Temp
°C
App
Temp
°C
Dew
Point
°C
Rel
Hum
%
Delta-T
°C
Wind Press
QNH
hPa
Press
MSL
hPa
Rain since
9am
mm
Dir  Spd
km/h
Gust
km/h
Spd
kts
Gust
kts
16/11:30pm - - - - - S 24 35 13 19 - - -
16/11:00pm - - - - - SSE 22 32 12 17 - - -
16/10:30pm - - - - - SSE 24 35 13 19 - - -
16/10:00pm - - - - - SSE 24 33 13 18 - - -
16/09:30pm - - - - - SSE 28 43 15 23 - - -
16/09:00pm - - - - - SSE 22 35 12 19 - - -
16/08:30pm - - - - - SE 24 41 13 22 - - -
16/08:00pm - - - - - SSE 24 37 13 20 - - -
16/07:30pm - - - - - SE 24 35 13 19 - - -
16/07:00pm - - - - - SSE 26 35 14 19 - - -
16/06:30pm - - - - - SSE 28 46 15 25 - - -
16/06:00pm - - - - - SSE 35 54 19 29 - - -
16/05:57pm - - - - - SSE 33 54 18 29 - - -
16/05:30pm - - - - - SSE 32 48 17 26 - - -
16/05:25pm - - - - - SSE 33 52 18 28 - - -
16/05:00pm - - - - - SSE 35 52 19 28 - - -
16/04:40pm - - - - - SSE 35 54 19 29 - - -
16/04:30pm - - - - - SSE 41 54 22 29 - - -
16/04:16pm - - - - - SSE 37 56 20 30 - - -
16/04:00pm - - - - - SSE 44 61 24 33 - - -
16/03:30pm - - - - - SSE 46 70 25 38 - - -
16/03:00pm - - - - - S 48 74 26 40 - - -
16/02:55pm - - - - - S 46 74 25 40 - - -
16/02:54pm - - - - - S 46 74 25 40 - - -
16/02:30pm - - - - - S 35 61 19 33 - - -
16/02:16pm - - - - - S 26 56 14 30 - - -
16/02:13pm - - - - - SE 20 48 11 26 - - -
16/02:00pm - - - - - E 19 20 10 11 - - -
16/01:30pm - - - - - ENE 7 22 4 12 - - -
16/01:00pm - - - - - W 6 7 3 4 - - -
16/12:30pm - - - - - W 13 17 7 9 - - -
16/12:00pm - - - - - WNW 19 30 10 16 - - -
16/11:30am - - - - - NW 20 28 11 15 - - -
16/11:00am - - - - - NW 17 30 9 16 - - -
16/10:30am - - - - - WNW 9 11 5 6 - - -
16/10:00am - - - - - WSW 7 11 4 6 - - -
16/09:30am - - - - - WNW 11 17 6 9 - - -
16/09:00am - - - - - W 7 15 4 8 - - -
16/08:30am - - - - - WNW 6 15 3 8 - - -
16/08:00am - - - - - W 9 13 5 7 - - -
16/07:30am - - - - - WNW 13 17 7 9 - - -
16/07:00am - - - - - WSW 6 9 3 5 - - -
16/06:30am - - - - - W 2 4 1 2 - - -
16/06:00am - - - - - WNW 4 6 2 3 - - -
16/05:30am - - - - - NW 4 7 2 4 - - -
16/05:00am - - - - - WNW 4 7 2 4 - - -
16/04:30am - - - - - CALM 0 2 0 1 - - -
16/04:00am - - - - - N 2 4 1 2 - - -
16/03:30am - - - - - NNW 2 4 1 2 - - -
16/03:00am - - - - - NNW 6 7 3 4 - - -
16/02:30am - - - - - W 4 6 2 3 - - -
16/02:00am - - - - - NW 2 4 1 2 - - -
16/01:30am - - - - - NNE 2 4 1 2 - - -
16/01:00am - - - - - CALM 0 4 0 2 - - -
16/12:30am - - - - - NNW 4 9 2 5 - - -
16/12:00am - - - - - W 9 11 5 6 - - -
 
Date/Time
EST
Temp
°C
App
Temp
°C
Dew
Point
°C
Rel
Hum
%
Delta-T
°C
Wind Press
QNH
hPa
Press
MSL
hPa
Rain since
9am
mm
Dir  Spd
km/h
Gust
km/h
Spd
kts
Gust
kts
15/11:30pm - - - - - W 11 13 6 7 - - -
15/11:00pm - - - - - CALM 0 4 0 2 - - -
15/10:30pm - - - - - E 4 7 2 4 - - -
15/10:00pm - - - - - CALM 0 4 0 2 - - -
15/09:30pm - - - - - SE 7 11 4 6 - - -
15/09:00pm - - - - - ESE 6 9 3 5 - - -
15/08:30pm - - - - - ESE 7 11 4 6 - - -
15/08:00pm - - - - - E 9 11 5 6 - - -
15/07:30pm - - - - - ESE 13 15 7 8 - - -
15/07:00pm - - - - - ESE 13 17 7 9 - - -
15/06:30pm - - - - - ESE 7 13 4 7 - - -
15/06:00pm - - - - - E 2 6 1 3 - - -
15/05:30pm - - - - - NNE 17 22 9 12 - - -
15/05:00pm - - - - - NNE 17 24 9 13 - - -
15/04:30pm - - - - - NNE 20 26 11 14 - - -
15/04:00pm - - - - - ENE 9 22 5 12 - - -
15/03:30pm - - - - - E 13 17 7 9 - - -
15/03:00pm - - - - - ENE 13 20 7 11 - - -
15/02:30pm - - - - - ENE 17 24 9 13 - - -
15/02:00pm - - - - - NE 11 19 6 10 - - -
15/01:30pm - - - - - ENE 17 19 9 10 - - -
15/01:00pm - - - - - NW 4 7 2 4 - - -
15/12:30pm - - - - - WNW 9 15 5 8 - - -
15/12:00pm - - - - - WSW 9 15 5 8 - - -
15/11:30am - - - - - WNW 2 4 1 2 - - -
15/11:00am - - - - - W 9 11 5 6 - - -
15/10:30am - - - - - W 7 9 4 5 - - -
15/10:00am - - - - - W 11 15 6 8 - - -
15/09:30am - - - - - W 13 17 7 9 - - -
15/09:00am - - - - - WNW 17 19 9 10 - - -

Latest Capital City Observations: Canberra | Sydney | Melbourne | Brisbane | Adelaide | Perth | Hobart | Darwin

Other formats

Comma delimited format used in spreadsheet applications
http://www.bom.gov.au/fwo/IDN60901/IDN60901.94769.axf

JavaScript Object Notation format (JSON) in row-major order
http://www.bom.gov.au/fwo/IDN60901/IDN60901.94769.json

Data quality

Most of these data are generated automatically and are frequently updated. Quality checks on data are not normally performed. It is possible for incorrect values to appear. Refer to information at About Latest Weather Observations and please check the disclaimer before using these data.